Time;durP1;ratioP1;P1;durP2;ratioP2;P2;SDS_P1;SDS_P2;PMS_P1;PMS_P2;Temp;Humidity;BMP_temperature;BMP_pressure;BME280_temperature;BME280_humidity;BME280_pressure;Samples;Min_cycle;Max_cycle;Signal;HPM_P1;HPM_P2
2021/12/26 00:01:52;;;;;;;12.95;3.95;;;;;;;;;;5061972;28;20488;-63
2021/12/26 00:04:18;;;;;;;13.07;4.93;;;;;;;;;;5060965;28;20048;-62
2021/12/26 00:06:45;;;;;;;11.85;4.25;;;;;;;;;;5062010;28;20144;-62
2021/12/26 00:09:11;;;;;;;8.40;3.72;;;;;;;;;;5063517;28;20552;-62
2021/12/26 00:11:38;;;;;;;9.65;3.55;;;;;;;;;;5058333;28;20139;-62
2021/12/26 00:14:11;;;;;;;13.60;4.47;;;;;;;;;;5059073;28;20135;-62
2021/12/26 00:16:38;;;;;;;10.70;3.83;;;;;;;;;;5054688;28;20485;-62
2021/12/26 00:19:04;;;;;;;10.20;3.40;;;;;;;;;;5061655;28;20136;-62
2021/12/26 00:21:37;;;;;;;16.67;5.10;;;;;;;;;;5059996;28;20136;-62
2021/12/26 00:24:04;;;;;;;11.20;3.88;;;;;;;;;;5062966;28;20128;-62
2021/12/26 00:26:32;;;;;;;11.02;4.43;;;;;;;;;;5055612;28;20084;-62
2021/12/26 00:29:05;;;;;;;9.80;4.43;;;;;;;;;;5056639;28;20066;-62
2021/12/26 00:31:32;;;;;;;10.20;4.28;;;;;;;;;;5058182;28;20124;-62
2021/12/26 00:33:58;;;;;;;11.90;4.38;;;;;;;;;;5058790;28;20102;-62
2021/12/26 00:36:25;;;;;;;10.45;4.47;;;;;;;;;;5058782;28;20084;-62
2021/12/26 00:38:52;;;;;;;7.18;3.47;;;;;;;;;;5055482;28;20465;-62
2021/12/26 00:41:18;;;;;;;10.93;4.15;;;;;;;;;;5059349;28;20048;-62
2021/12/26 00:43:45;;;;;;;11.00;4.70;;;;;;;;;;5061457;28;20488;-62
2021/12/26 00:46:17;;;;;;;11.37;5.40;;;;;;;;;;5057095;28;20052;-62
2021/12/26 00:48:44;;;;;;;14.47;5.93;;;;;;;;;;5059346;28;20045;-62
2021/12/26 00:51:10;;;;;;;4.90;3.13;;;;;;;;;;5059264;28;20132;-62
2021/12/26 00:53:37;;;;;;;8.90;3.83;;;;;;;;;;5063861;28;20140;-62
2021/12/26 00:56:03;;;;;;;9.68;3.75;;;;;;;;;;5066435;28;20053;-62
2021/12/26 00:58:36;;;;;;;10.33;4.00;;;;;;;;;;5061767;28;20050;-62
2021/12/26 01:01:03;;;;;;;9.55;3.78;;;;;;;;;;5059610;28;20128;-62
2021/12/26 01:03:29;;;;;;;8.32;3.40;;;;;;;;;;5058983;28;20460;-62
2021/12/26 01:06:03;;;;;;;8.00;3.50;;;;;;;;;;5058322;28;20139;-62
2021/12/26 01:08:31;;;;;;;6.30;3.05;;;;;;;;;;5060610;28;20087;-62
2021/12/26 01:11:20;;;;;;;13.30;4.47;;;;;;;;;;5059314;28;20049;-62
2021/12/26 01:13:48;;;;;;;11.07;4.10;;;;;;;;;;5061593;28;20458;-62
2021/12/26 01:16:16;;;;;;;7.60;3.90;;;;;;;;;;5060482;28;20079;-62
2021/12/26 01:18:55;;;;;;;9.73;4.27;;;;;;;;;;5061573;28;20090;-62
2021/12/26 01:21:25;;;;;;;7.63;3.50;;;;;;;;;;5058875;28;20072;-62
2021/12/26 01:23:53;;;;;;;8.80;4.13;;;;;;;;;;5059372;28;20045;-62
2021/12/26 01:26:19;;;;;;;7.17;3.93;;;;;;;;;;5061857;28;20128;-62
2021/12/26 01:28:53;;;;;;;10.77;4.50;;;;;;;;;;5064858;28;20135;-62
2021/12/26 01:31:20;;;;;;;6.60;2.72;;;;;;;;;;5058729;28;20132;-62
2021/12/26 01:33:47;;;;;;;8.90;3.95;;;;;;;;;;5061507;28;20059;-62
2021/12/26 01:36:15;;;;;;;8.20;3.53;;;;;;;;;;5057442;28;20079;-62
2021/12/26 01:38:41;;;;;;;10.25;3.67;;;;;;;;;;5058173;28;20075;-62
2021/12/26 01:41:10;;;;;;;11.10;3.97;;;;;;;;;;5059815;28;20063;-62
2021/12/26 01:43:40;;;;;;;15.57;4.00;;;;;;;;;;5058925;28;20454;-62
2021/12/26 01:46:07;;;;;;;9.07;3.47;;;;;;;;;;5062483;28;20079;-62
2021/12/26 01:48:33;;;;;;;5.85;2.78;;;;;;;;;;5052468;27;20497;-61
2021/12/26 01:51:04;;;;;;;8.43;3.43;;;;;;;;;;5057821;28;20132;-62
2021/12/26 01:53:37;;;;;;;10.55;3.80;;;;;;;;;;5058504;28;20474;-62
2021/12/26 01:56:09;;;;;;;10.60;3.43;;;;;;;;;;5061390;28;20068;-62
2021/12/26 01:58:37;;;;;;;9.53;4.03;;;;;;;;;;5060529;28;20575;-62
2021/12/26 02:01:09;;;;;;;6.57;3.33;;;;;;;;;;5064308;28;20076;-62
2021/12/26 02:03:36;;;;;;;13.40;3.37;;;;;;;;;;5059405;28;20053;-60
2021/12/26 02:06:09;;;;;;;7.17;3.13;;;;;;;;;;5051630;28;20567;-62
2021/12/26 02:08:36;;;;;;;8.07;3.28;;;;;;;;;;5058359;28;20056;-62
2021/12/26 02:11:02;;;;;;;10.50;3.40;;;;;;;;;;5060527;28;20131;-62
2021/12/26 02:13:39;;;;;;;8.47;3.67;;;;;;;;;;5056406;28;20053;-62
2021/12/26 02:16:07;;;;;;;8.27;2.80;;;;;;;;;;5055544;28;20091;-62
2021/12/26 02:18:33;;;;;;;9.00;3.73;;;;;;;;;;5058811;28;20049;-62
2021/12/26 02:21:24;;;;;;;17.03;3.77;;;;;;;;;;5066607;28;20132;-62
2021/12/26 02:24:03;;;;;;;7.17;3.10;;;;;;;;;;5057526;28;20306;-62
2021/12/26 02:29:21;;;;;;;7.77;3.20;;;;;;;;;;5058943;28;20551;-62
2021/12/26 02:31:59;;;;;;;7.33;3.30;;;;;;;;;;5059988;28;20131;-62
2021/12/26 02:34:25;;;;;;;15.67;3.73;;;;;;;;;;5056076;28;20140;-62
2021/12/26 02:36:51;;;;;;;5.35;2.97;;;;;;;;;;5057985;28;20136;-62
2021/12/26 02:39:18;;;;;;;5.80;3.08;;;;;;;;;;5055211;28;20088;-62
2021/12/26 02:41:44;;;;;;;6.85;3.72;;;;;;;;;;5061374;28;20599;-62
2021/12/26 02:44:11;;;;;;;8.82;3.50;;;;;;;;;;5058866;28;20286;-62
2021/12/26 02:46:40;;;;;;;;;;;;;;;;;;5057107;28;20131;-62
2021/12/26 02:49:07;;;;;;;6.07;3.30;;;;;;;;;;5055864;28;20382;-62
2021/12/26 02:51:34;;;;;;;9.70;3.47;;;;;;;;;;5062356;28;20500;-62
2021/12/26 02:54:01;;;;;;;12.30;5.28;;;;;;;;;;5059800;28;20072;-62
2021/12/26 02:56:29;;;;;;;;;;;;;;;;;;5049798;28;20175;-62
2021/12/26 02:58:56;;;;;;;11.00;3.10;;;;;;;;;;5079131;28;19970;-62
2021/12/26 03:01:29;;;;;;;9.43;3.03;;;;;;;;;;5077454;28;20139;-62
2021/12/26 03:03:56;;;;;;;10.27;2.92;;;;;;;;;;5078210;28;20052;-62
2021/12/26 03:06:28;;;;;;;7.57;2.83;;;;;;;;;;5080133;28;20048;-62
2021/12/26 03:09:01;;;;;;;4.07;2.50;;;;;;;;;;5055659;28;20045;-63
2021/12/26 03:11:28;;;;;;;9.55;3.20;;;;;;;;;;5039403;28;20140;-62
2021/12/26 03:13:54;;;;;;;5.97;3.05;;;;;;;;;;5079562;28;20053;-62
2021/12/26 03:16:27;;;;;;;11.53;3.30;;;;;;;;;;5081291;28;20731;-63
2021/12/26 03:18:57;;;;;;;3.15;2.08;;;;;;;;;;5082559;28;20052;-62
2021/12/26 03:21:24;;;;;;;8.27;2.60;;;;;;;;;;5078828;28;20567;-63
2021/12/26 03:23:57;;;;;;;7.07;2.97;;;;;;;;;;5080551;28;20665;-62
2021/12/26 03:26:23;;;;;;;9.10;2.30;;;;;;;;;;5076581;28;20075;-62
2021/12/26 03:28:50;;;;;;;5.22;2.20;;;;;;;;;;5085917;28;20131;-62
2021/12/26 03:31:16;;;;;;;3.47;1.90;;;;;;;;;;5080005;28;20136;-62
2021/12/26 03:33:43;;;;;;;10.57;2.92;;;;;;;;;;5078422;28;20141;-62
2021/12/26 03:36:09;;;;;;;7.50;2.75;;;;;;;;;;5078455;28;20136;-63
2021/12/26 03:38:42;;;;;;;8.03;2.70;;;;;;;;;;5085112;28;20136;-62
2021/12/26 03:41:08;;;;;;;4.20;2.53;;;;;;;;;;5081148;28;20147;-63
2021/12/26 03:43:35;;;;;;;7.93;2.58;;;;;;;;;;5083015;28;20499;-62
2021/12/26 03:46:02;;;;;;;7.57;2.75;;;;;;;;;;5088100;28;20139;-63
2021/12/26 03:48:28;;;;;;;4.60;2.47;;;;;;;;;;5082250;28;20079;-62
2021/12/26 03:50:55;;;;;;;2.63;1.63;;;;;;;;;;5082084;28;20349;-62
2021/12/26 03:53:22;;;;;;;3.88;2.55;;;;;;;;;;5084917;28;20127;-63
2021/12/26 03:55:48;;;;;;;4.03;2.17;;;;;;;;;;5081786;28;20135;-65
2021/12/26 03:58:15;;;;;;;7.68;2.38;;;;;;;;;;5079451;28;20083;-63
2021/12/26 04:00:43;;;;;;;8.97;2.33;;;;;;;;;;5076763;28;20079;-63
2021/12/26 04:03:10;;;;;;;;;;;;;;;;;;5079773;28;20492;-62
2021/12/26 04:05:36;;;;;;;7.53;3.10;;;;;;;;;;5083619;28;19974;-62
2021/12/26 04:08:03;;;;;;;5.53;3.05;;;;;;;;;;5081454;28;20080;-62
2021/12/26 04:10:30;;;;;;;9.23;3.72;;;;;;;;;;5081896;28;20119;-62
2021/12/26 04:12:57;;;;;;;6.65;3.05;;;;;;;;;;5090375;28;20346;-63
2021/12/26 04:15:31;;;;;;;6.83;3.33;;;;;;;;;;5057725;28;20052;-62
2021/12/26 04:17:58;;;;;;;11.80;4.15;;;;;;;;;;5058412;28;20152;-62
2021/12/26 04:20:26;;;;;;;5.85;3.10;;;;;;;;;;5059718;28;20163;-63
2021/12/26 04:22:59;;;;;;;12.83;3.73;;;;;;;;;;5061311;28;20076;-63
2021/12/26 04:25:26;;;;;;;6.35;2.70;;;;;;;;;;5076340;28;20084;-62
2021/12/26 04:27:52;;;;;;;5.25;2.30;;;;;;;;;;5083227;28;20106;-62
2021/12/26 04:30:19;;;;;;;;;;;;;;;;;;5081736;28;20131;-62
2021/12/26 04:32:46;;;;;;;7.90;3.00;;;;;;;;;;5082862;28;19970;-62
2021/12/26 04:35:12;;;;;;;10.55;3.47;;;;;;;;;;5082768;28;20079;-62
2021/12/26 04:37:39;;;;;;;5.22;2.47;;;;;;;;;;5081302;28;20040;-62
2021/12/26 04:40:12;;;;;;;6.13;2.60;;;;;;;;;;5081338;28;20128;-62
2021/12/26 04:42:40;;;;;;;5.80;2.90;;;;;;;;;;5077583;28;20055;-62
2021/12/26 04:45:09;;;;;;;6.07;2.30;;;;;;;;;;5083245;28;20146;-62
2021/12/26 04:47:37;;;;;;;9.03;2.83;;;;;;;;;;5078352;28;20056;-62
2021/12/26 04:50:12;;;;;;;5.90;3.10;;;;;;;;;;5059072;28;20059;-62
2021/12/26 04:52:41;;;;;;;5.97;2.87;;;;;;;;;;5069698;28;20084;-62
2021/12/26 04:55:07;;;;;;;7.10;2.87;;;;;;;;;;5064181;28;20076;-62
2021/12/26 04:57:35;;;;;;;7.35;3.08;;;;;;;;;;5065099;28;20114;-62
2021/12/26 05:00:06;;;;;;;4.10;2.33;;;;;;;;;;5058003;28;20060;-62
2021/12/26 05:02:35;;;;;;;8.57;2.90;;;;;;;;;;5056328;28;20494;-62
2021/12/26 05:05:03;;;;;;;9.00;3.10;;;;;;;;;;5056530;28;20143;-62
2021/12/26 05:07:30;;;;;;;5.05;2.78;;;;;;;;;;5060480;28;20072;-61
2021/12/26 05:09:56;;;;;;;6.25;2.42;;;;;;;;;;5054860;28;20096;-62
2021/12/26 05:12:24;;;;;;;8.77;3.47;;;;;;;;;;5059237;28;20128;-62
2021/12/26 05:14:51;;;;;;;7.63;2.53;;;;;;;;;;5059052;28;20559;-62
2021/12/26 05:17:21;;;;;;;6.73;2.97;;;;;;;;;;5060633;28;20057;-62
2021/12/26 05:19:49;;;;;;;4.33;2.40;;;;;;;;;;5060877;28;20569;-62
2021/12/26 05:22:16;;;;;;;5.05;2.47;;;;;;;;;;5055640;28;20144;-62
2021/12/26 05:24:43;;;;;;;5.93;2.67;;;;;;;;;;5060901;28;20080;-62
2021/12/26 05:27:10;;;;;;;5.70;2.90;;;;;;;;;;5060537;28;20128;-62
2021/12/26 05:29:36;;;;;;;4.75;2.58;;;;;;;;;;5064606;28;20576;-62
2021/12/26 05:32:02;;;;;;;7.75;2.80;;;;;;;;;;5062392;28;20148;-62
2021/12/26 05:34:36;;;;;;;6.40;2.50;;;;;;;;;;5059626;28;20136;-63
2021/12/26 05:37:02;;;;;;;6.13;2.63;;;;;;;;;;5057738;28;20139;-62
2021/12/26 05:39:29;;;;;;;5.40;2.78;;;;;;;;;;5060681;28;20706;-62
2021/12/26 05:41:56;;;;;;;4.03;2.30;;;;;;;;;;5060735;28;20136;-62
2021/12/26 05:44:22;;;;;;;5.18;2.83;;;;;;;;;;5056805;28;20040;-62
2021/12/26 05:46:48;;;;;;;4.45;2.10;;;;;;;;;;5059026;28;20080;-62
2021/12/26 05:49:22;;;;;;;5.80;2.80;;;;;;;;;;5056519;28;20053;-62
2021/12/26 05:51:48;;;;;;;4.00;2.35;;;;;;;;;;5057065;28;20469;-63
2021/12/26 05:54:15;;;;;;;3.92;2.10;;;;;;;;;;5060827;28;20131;-62
2021/12/26 05:56:42;;;;;;;5.33;2.37;;;;;;;;;;5058945;28;20087;-62
2021/12/26 05:59:08;;;;;;;3.40;2.17;;;;;;;;;;5055694;28;20094;-62
2021/12/26 06:01:35;;;;;;;5.60;2.20;;;;;;;;;;5062969;28;20139;-62
2021/12/26 06:04:08;;;;;;;4.00;2.60;;;;;;;;;;5060533;28;20060;-62
2021/12/26 06:06:35;;;;;;;;;;;;;;;;;;5063419;28;20053;-62
2021/12/26 06:09:03;;;;;;;5.47;2.03;;;;;;;;;;5055142;28;19956;-62
2021/12/26 06:11:30;;;;;;;7.43;2.83;;;;;;;;;;5059432;28;20076;-62
2021/12/26 06:13:57;;;;;;;4.70;2.55;;;;;;;;;;5059215;28;20088;-62
2021/12/26 06:16:23;;;;;;;5.70;2.47;;;;;;;;;;5058391;28;20382;-62
2021/12/26 06:18:56;;;;;;;5.50;2.57;;;;;;;;;;5056033;28;20048;-62
2021/12/26 06:21:23;;;;;;;4.57;1.98;;;;;;;;;;5057652;28;20117;-62
2021/12/26 06:23:52;;;;;;;2.63;1.90;;;;;;;;;;5058966;28;20041;-62
2021/12/26 06:26:23;;;;;;;7.37;2.50;;;;;;;;;;5056904;28;20478;-62
2021/12/26 06:28:50;;;;;;;4.33;2.30;;;;;;;;;;5061123;28;20048;-62
2021/12/26 06:31:16;;;;;;;7.72;2.70;;;;;;;;;;5055402;28;20178;-62
2021/12/26 06:33:44;;;;;;;7.60;2.80;;;;;;;;;;5057238;28;20049;-62
2021/12/26 06:36:11;;;;;;;;;;;;;;;;;;5063579;28;20083;-62
2021/12/26 06:38:37;;;;;;;4.63;2.67;;;;;;;;;;5059824;28;19920;-62
2021/12/26 06:41:12;;;;;;;9.63;3.00;;;;;;;;;;5057381;28;20140;-62
2021/12/26 06:43:39;;;;;;;6.43;3.03;;;;;;;;;;5061914;28;20135;-62
2021/12/26 06:46:06;;;;;;;9.52;4.40;;;;;;;;;;5060809;28;20128;-62
2021/12/26 06:48:41;;;;;;;9.27;2.77;;;;;;;;;;5059373;28;20063;-62
2021/12/26 06:51:09;;;;;;;11.90;3.27;;;;;;;;;;5055203;28;20056;-62
2021/12/26 06:53:35;;;;;;;4.93;2.05;;;;;;;;;;5056657;28;20492;-62
2021/12/26 06:56:02;;;;;;;10.68;2.85;;;;;;;;;;5058364;28;20131;-62
2021/12/26 06:58:29;;;;;;;;;;;;;;;;;;5067399;28;20076;-62
2021/12/26 07:00:55;;;;;;;11.43;3.03;;;;;;;;;;5059121;28;19924;-62
2021/12/26 07:03:23;;;;;;;6.13;2.57;;;;;;;;;;5057412;28;20063;-62
2021/12/26 07:05:50;;;;;;;10.00;2.90;;;;;;;;;;5063046;28;20170;-59
2021/12/26 07:08:16;;;;;;;7.57;2.13;;;;;;;;;;5060343;28;20132;-62
2021/12/26 07:10:44;;;;;;;7.93;2.53;;;;;;;;;;5060295;28;20153;-62
2021/12/26 07:13:11;;;;;;;7.40;2.60;;;;;;;;;;5062277;28;20096;-62
2021/12/26 07:15:37;;;;;;;4.72;2.45;;;;;;;;;;5061907;28;20461;-62
2021/12/26 07:18:06;;;;;;;8.03;2.83;;;;;;;;;;5063979;28;20052;-62
2021/12/26 07:20:33;;;;;;;7.63;2.70;;;;;;;;;;5061355;28;20120;-62
2021/12/26 07:23:00;;;;;;;8.25;2.60;;;;;;;;;;5063191;28;20132;-62
2021/12/26 07:25:33;;;;;;;5.83;2.37;;;;;;;;;;5059037;28;20079;-62
2021/12/26 07:28:00;;;;;;;8.70;2.60;;;;;;;;;;5065180;28;20091;-62
2021/12/26 07:30:26;;;;;;;6.53;2.72;;;;;;;;;;5063049;28;20095;-62
2021/12/26 07:32:56;;;;;;;6.87;2.43;;;;;;;;;;5063501;28;20500;-62
2021/12/26 07:35:24;;;;;;;5.47;2.85;;;;;;;;;;5062030;28;20128;-62
2021/12/26 07:37:52;;;;;;;8.17;2.90;;;;;;;;;;5057403;28;20132;-62
2021/12/26 07:40:27;;;;;;;6.73;2.70;;;;;;;;;;5055474;28;20523;-62
2021/12/26 07:42:53;;;;;;;6.57;2.57;;;;;;;;;;5053161;28;20084;-62
2021/12/26 07:45:20;;;;;;;4.28;2.40;;;;;;;;;;5064761;28;20144;-62
2021/12/26 07:47:49;;;;;;;4.00;2.53;;;;;;;;;;5064501;28;20044;-62
2021/12/26 07:50:15;;;;;;;5.32;2.92;;;;;;;;;;5062761;28;20085;-62
2021/12/26 07:52:44;;;;;;;5.15;2.67;;;;;;;;;;5056631;28;20068;-62
2021/12/26 07:55:13;;;;;;;11.40;3.23;;;;;;;;;;5060344;28;20397;-62
2021/12/26 07:57:40;;;;;;;14.50;2.60;;;;;;;;;;5059156;28;20139;-62
2021/12/26 08:00:07;;;;;;;6.60;2.83;;;;;;;;;;5057392;28;20051;-62
2021/12/26 08:02:36;;;;;;;6.53;3.00;;;;;;;;;;5062322;28;20182;-62
2021/12/26 08:05:02;;;;;;;8.00;3.47;;;;;;;;;;5063751;28;20168;-62
2021/12/26 08:07:29;;;;;;;8.52;3.20;;;;;;;;;;5060552;28;20136;-62
2021/12/26 08:09:55;;;;;;;7.00;3.20;;;;;;;;;;5059511;28;20079;-62
2021/12/26 08:12:22;;;;;;;7.45;3.17;;;;;;;;;;5057965;28;20144;-62
2021/12/26 08:14:48;;;;;;;7.35;3.70;;;;;;;;;;5062301;28;20071;-62
2021/12/26 08:17:18;;;;;;;9.27;3.77;;;;;;;;;;5058898;28;20052;-62
2021/12/26 08:19:44;;;;;;;6.43;3.60;;;;;;;;;;5065898;28;20076;-62
2021/12/26 08:22:11;;;;;;;8.25;3.50;;;;;;;;;;5060135;28;20049;-62
2021/12/26 08:24:37;;;;;;;5.10;2.60;;;;;;;;;;5061929;28;20136;-62
2021/12/26 08:27:04;;;;;;;5.88;3.17;;;;;;;;;;5061648;28;20069;-62
2021/12/26 08:29:30;;;;;;;5.68;3.10;;;;;;;;;;5064025;28;20048;-62
2021/12/26 08:32:04;;;;;;;8.43;3.30;;;;;;;;;;5061045;28;20127;-62
2021/12/26 08:34:30;;;;;;;;;;;;;;;;;;5055224;28;20047;-62
2021/12/26 08:37:01;;;;;;;6.83;2.90;;;;;;;;;;5059102;28;19924;-62
2021/12/26 08:39:29;;;;;;;6.53;2.70;;;;;;;;;;5057747;28;20071;-62
2021/12/26 08:41:55;;;;;;;5.97;2.80;;;;;;;;;;5060998;28;20145;-62
2021/12/26 08:44:22;;;;;;;6.25;2.67;;;;;;;;;;5060348;28;20053;-62
2021/12/26 08:46:55;;;;;;;8.50;4.17;;;;;;;;;;5060937;28;20135;-62
2021/12/26 08:49:22;;;;;;;6.55;3.20;;;;;;;;;;5056902;28;20049;-62
2021/12/26 08:51:49;;;;;;;;;;;;;;;;;;5060189;28;20080;-62
2021/12/26 08:54:15;;;;;;;4.30;2.60;;;;;;;;;;5061255;28;19924;-62
2021/12/26 08:56:42;;;;;;;;;;;;;;;;;;5059020;28;20040;-63
2021/12/26 08:59:09;;;;;;;9.40;2.90;;;;;;;;;;5064122;28;20006;-62
2021/12/26 09:01:36;;;;;;;8.40;2.40;;;;;;;;;;5059513;28;20477;-62
2021/12/26 09:04:03;;;;;;;8.80;3.28;;;;;;;;;;5055087;28;20135;-62
2021/12/26 09:06:30;;;;;;;4.07;2.47;;;;;;;;;;5054383;28;20056;-62
2021/12/26 09:08:57;;;;;;;8.25;3.30;;;;;;;;;;5038951;28;20051;-62
2021/12/26 09:11:23;;;;;;;5.05;2.72;;;;;;;;;;5081344;28;20055;-62
2021/12/26 09:13:50;;;;;;;8.75;3.53;;;;;;;;;;5080928;28;20115;-62
2021/12/26 09:16:16;;;;;;;5.75;2.92;;;;;;;;;;5078634;28;20385;-62
2021/12/26 09:18:43;;;;;;;8.63;3.38;;;;;;;;;;5077895;28;20044;-62
2021/12/26 09:21:11;;;;;;;5.83;3.43;;;;;;;;;;5080639;28;20048;-62
2021/12/26 09:23:38;;;;;;;7.53;2.97;;;;;;;;;;5078669;28;20131;-62
2021/12/26 09:26:04;;;;;;;9.80;3.22;;;;;;;;;;5073418;28;20054;-62
2021/12/26 09:28:35;;;;;;;7.07;3.50;;;;;;;;;;5074355;28;20158;-62
2021/12/26 09:31:03;;;;;;;8.17;3.47;;;;;;;;;;5074827;28;22583;-62
2021/12/26 09:33:30;;;;;;;10.07;3.20;;;;;;;;;;5074602;28;20048;-61
2021/12/26 09:36:03;;;;;;;10.90;3.97;;;;;;;;;;5075985;28;20054;-62
2021/12/26 09:38:29;;;;;;;8.60;2.92;;;;;;;;;;5073624;28;20246;-62
2021/12/26 09:40:56;;;;;;;7.18;2.67;;;;;;;;;;5073320;28;20538;-63
2021/12/26 09:43:29;;;;;;;6.70;3.20;;;;;;;;;;5074597;28;20052;-62
2021/12/26 09:45:55;;;;;;;7.90;3.30;;;;;;;;;;5072548;28;20169;-63
2021/12/26 09:48:22;;;;;;;5.78;3.30;;;;;;;;;;5074874;28;20048;-63
2021/12/26 09:50:55;;;;;;;10.87;3.50;;;;;;;;;;5057537;28;20144;-62
2021/12/26 09:53:23;;;;;;;9.00;3.60;;;;;;;;;;5074457;28;20127;-63
2021/12/26 09:55:50;;;;;;;11.93;6.97;;;;;;;;;;5071575;28;20560;-62
2021/12/26 09:58:17;;;;;;;;;;;;;;;;;;5074790;28;20048;-62
2021/12/26 10:00:44;;;;;;;6.67;3.10;;;;;;;;;;5073470;28;20062;-63
2021/12/26 10:03:13;;;;;;;11.93;3.70;;;;;;;;;;5075013;28;20048;-62
2021/12/26 10:06:06;;;;;;;7.23;3.13;;;;;;;;;;5075342;28;20054;-62
2021/12/26 10:08:33;;;;;;;4.43;2.63;;;;;;;;;;5074337;28;20144;-62
2021/12/26 10:11:14;;;;;;;4.77;2.83;;;;;;;;;;5073093;28;20170;-63
2021/12/26 10:13:45;;;;;;;10.38;4.78;;;;;;;;;;5072710;28;20565;-62
2021/12/26 10:16:14;;;;;;;6.90;3.10;;;;;;;;;;5074184;28;20063;-62
2021/12/26 10:18:41;;;;;;;10.67;3.27;;;;;;;;;;5073357;28;20052;-63
2021/12/26 10:21:26;;;;;;;8.43;3.40;;;;;;;;;;5075469;28;20078;-63
2021/12/26 10:23:55;;;;;;;8.87;3.40;;;;;;;;;;5075376;28;20056;-62
2021/12/26 10:26:22;;;;;;;9.82;3.33;;;;;;;;;;5076440;28;20696;-62
2021/12/26 10:29:07;;;;;;;9.70;3.60;;;;;;;;;;5076742;28;20084;-60
2021/12/26 10:31:35;;;;;;;9.23;3.60;;;;;;;;;;5079882;28;20119;-60
2021/12/26 10:34:02;;;;;;;11.43;3.70;;;;;;;;;;5084691;28;20094;-61
2021/12/26 10:36:28;;;;;;;13.02;6.78;;;;;;;;;;5075516;28;20055;-60
2021/12/26 10:39:08;;;;;;;7.07;2.83;;;;;;;;;;5080245;28;20048;-60
2021/12/26 10:41:46;;;;;;;8.80;3.47;;;;;;;;;;5078231;28;20500;-60
2021/12/26 10:44:12;;;;;;;;;;;;;;;;;;5083363;28;20135;-62
2021/12/26 10:46:45;;;;;;;10.17;3.03;;;;;;;;;;5083021;28;19931;-60
2021/12/26 10:49:28;;;;;;;9.40;3.97;;;;;;;;;;5083279;28;20048;-64
2021/12/26 10:51:55;;;;;;;6.87;3.60;;;;;;;;;;5086493;28;20092;-69
2021/12/26 10:54:25;;;;;;;6.75;3.17;;;;;;;;;;5080432;28;20598;-68
2021/12/26 10:57:03;;;;;;;10.23;3.47;;;;;;;;;;5081791;28;20045;-69
2021/12/26 10:59:29;;;;;;;10.27;3.08;;;;;;;;;;5085346;28;20131;-69
2021/12/26 11:01:56;;;;;;;5.20;2.37;;;;;;;;;;5083961;28;20158;-69
2021/12/26 11:04:24;;;;;;;5.40;2.80;;;;;;;;;;5069389;28;20084;-69
2021/12/26 11:07:02;;;;;;;8.03;3.47;;;;;;;;;;5078746;28;20132;-64
2021/12/26 11:09:29;;;;;;;7.45;3.25;;;;;;;;;;5066517;28;20079;-67
2021/12/26 11:12:08;;;;;;;5.72;2.65;;;;;;;;;;5085627;28;20550;-67
2021/12/26 11:14:54;;;;;;;7.93;2.73;;;;;;;;;;5089283;28;20072;-67
2021/12/26 11:17:29;;;;;;;6.83;2.83;;;;;;;;;;5089714;28;20481;-66
2021/12/26 11:19:56;;;;;;;10.00;3.10;;;;;;;;;;5088479;28;20086;-66
2021/12/26 11:22:23;;;;;;;9.80;3.40;;;;;;;;;;5082670;28;20094;-66
2021/12/26 11:24:50;;;;;;;37.45;17.42;;;;;;;;;;5077944;28;20556;-66
2021/12/26 11:27:16;;;;;;;16.42;5.15;;;;;;;;;;5081827;28;20134;-66
2021/12/26 11:29:42;;;;;;;11.55;4.00;;;;;;;;;;5081629;28;20050;-66
2021/12/26 11:32:09;;;;;;;8.20;3.40;;;;;;;;;;5082729;28;20082;-66
2021/12/26 11:34:40;;;;;;;6.83;3.60;;;;;;;;;;5081418;28;20048;-66
2021/12/26 11:37:08;;;;;;;9.40;4.10;;;;;;;;;;5082253;28;20131;-66
2021/12/26 11:39:37;;;;;;;9.33;3.70;;;;;;;;;;5078344;28;20119;-66
2021/12/26 11:42:13;;;;;;;9.77;3.90;;;;;;;;;;5077090;28;20080;-66
2021/12/26 11:44:45;;;;;;;10.80;4.00;;;;;;;;;;5080796;28;20587;-66
2021/12/26 11:47:35;;;;;;;9.03;4.00;;;;;;;;;;5083728;28;20044;-67
2021/12/26 11:50:19;;;;;;;7.70;3.73;;;;;;;;;;5084121;28;20624;-66
2021/12/26 11:52:45;;;;;;;5.97;3.13;;;;;;;;;;5078966;28;20155;-66
2021/12/26 11:55:30;;;;;;;8.50;3.40;;;;;;;;;;5082277;28;20131;-66
2021/12/26 11:58:12;;;;;;;9.47;3.57;;;;;;;;;;5083546;28;20127;-66
2021/12/26 12:00:41;;;;;;;10.47;3.60;;;;;;;;;;5081017;28;20064;-66
2021/12/26 12:03:20;;;;;;;8.37;3.70;;;;;;;;;;5067951;28;20079;-66
2021/12/26 12:05:47;;;;;;;12.67;8.70;;;;;;;;;;5082923;28;20040;-67
2021/12/26 12:08:24;;;;;;;8.80;4.47;;;;;;;;;;5080959;28;20504;-67
2021/12/26 12:10:56;;;;;;;9.23;3.42;;;;;;;;;;5077980;28;20143;-67
2021/12/26 12:13:22;;;;;;;9.67;3.73;;;;;;;;;;5080263;28;20507;-67
2021/12/26 12:15:51;;;;;;;10.63;3.50;;;;;;;;;;5080335;28;20143;-66
2021/12/26 12:18:29;;;;;;;7.70;3.50;;;;;;;;;;5080024;28;20068;-66
2021/12/26 12:21:14;;;;;;;14.25;3.58;;;;;;;;;;5083625;28;20139;-66
2021/12/26 12:24:03;;;;;;;8.35;3.22;;;;;;;;;;5081245;28;20523;-66
2021/12/26 12:26:37;;;;;;;16.10;3.73;;;;;;;;;;5079759;28;20622;-66
2021/12/26 12:29:04;;;;;;;12.63;3.90;;;;;;;;;;5076821;28;20076;-66
2021/12/26 12:31:30;;;;;;;6.88;2.83;;;;;;;;;;5082943;28;20052;-67
2021/12/26 12:34:02;;;;;;;6.88;3.10;;;;;;;;;;5086712;28;20075;-67
2021/12/26 12:36:30;;;;;;;16.43;5.03;;;;;;;;;;5076625;28;20131;-66
2021/12/26 12:39:08;;;;;;;12.57;3.80;;;;;;;;;;5082149;28;20141;-66
2021/12/26 12:41:43;;;;;;;9.05;3.40;;;;;;;;;;5079036;28;20127;-69
2021/12/26 12:44:27;;;;;;;12.93;3.67;;;;;;;;;;5083000;28;20543;-69
2021/12/26 12:47:03;;;;;;;10.55;3.72;;;;;;;;;;5086553;28;20058;-69
2021/12/26 12:49:50;;;;;;;11.75;3.95;;;;;;;;;;5080734;28;20048;-70
2021/12/26 12:52:36;;;;;;;8.00;3.55;;;;;;;;;;5082825;28;20080;-69
2021/12/26 12:55:06;;;;;;;18.63;4.07;;;;;;;;;;5080914;28;20097;-68
2021/12/26 12:57:37;;;;;;;12.25;4.10;;;;;;;;;;5079293;28;20163;-69
2021/12/26 13:00:05;;;;;;;11.00;4.23;;;;;;;;;;5081472;28;20113;-69
2021/12/26 13:02:45;;;;;;;11.73;3.88;;;;;;;;;;5082344;28;20044;-68
2021/12/26 13:05:12;;;;;;;9.65;4.35;;;;;;;;;;5078283;28;20673;-68
2021/12/26 13:07:38;;;;;;;18.90;7.35;;;;;;;;;;5078893;28;20047;-69
2021/12/26 13:10:10;;;;;;;13.83;6.33;;;;;;;;;;5077023;28;20479;-69
2021/12/26 13:12:37;;;;;;;16.07;4.73;;;;;;;;;;5080602;28;20499;-69
2021/12/26 13:15:04;;;;;;;9.15;4.22;;;;;;;;;;5078773;28;20567;-69
2021/12/26 13:17:31;;;;;;;19.65;11.60;;;;;;;;;;5079034;28;20147;-69
2021/12/26 13:20:03;;;;;;;16.52;9.43;;;;;;;;;;5079530;28;20502;-69
2021/12/26 13:22:38;;;;;;;14.53;6.13;;;;;;;;;;5083654;28;20140;-69
2021/12/26 13:25:05;;;;;;;9.53;5.10;;;;;;;;;;5078424;28;20048;-69
2021/12/26 13:27:32;;;;;;;9.70;3.60;;;;;;;;;;5082119;28;20507;-69
2021/12/26 13:29:58;;;;;;;12.63;6.60;;;;;;;;;;5081952;28;20389;-69
2021/12/26 13:32:33;;;;;;;25.73;10.43;;;;;;;;;;5082755;28;20127;-69
2021/12/26 13:35:00;;;;;;;81.77;30.00;;;;;;;;;;5083944;28;20139;-69
2021/12/26 13:37:27;;;;;;;;;;;;;;;;;;5082392;28;20488;-66
2021/12/26 13:39:54;;;;;;;18.37;6.73;;;;;;;;;;5078766;28;19971;-66
2021/12/26 13:42:22;;;;;;;14.27;4.87;;;;;;;;;;5080659;28;20044;-66
2021/12/26 13:44:48;;;;;;;7.85;3.45;;;;;;;;;;5081412;28;20143;-66
2021/12/26 13:47:15;;;;;;;8.27;3.25;;;;;;;;;;5081662;28;20492;-68
2021/12/26 13:49:41;;;;;;;9.07;4.63;;;;;;;;;;5082096;28;20075;-68
2021/12/26 13:52:08;;;;;;;7.22;3.75;;;;;;;;;;5085389;28;20123;-69
2021/12/26 13:54:48;;;;;;;7.07;3.90;;;;;;;;;;5085433;28;20039;-69
2021/12/26 13:57:17;;;;;;;10.37;3.90;;;;;;;;;;5074698;28;20868;-66
2021/12/26 13:59:45;;;;;;;9.70;4.30;;;;;;;;;;5080682;28;20512;-66
2021/12/26 14:02:13;;;;;;;11.20;4.30;;;;;;;;;;5085120;28;20455;-66
2021/12/26 14:04:52;;;;;;;13.80;4.60;;;;;;;;;;5085752;28;20197;-66
2021/12/26 14:07:21;;;;;;;8.90;4.20;;;;;;;;;;5083501;28;20147;-66
2021/12/26 14:09:49;;;;;;;21.63;9.63;;;;;;;;;;5080838;28;20559;-66
2021/12/26 14:12:30;;;;;;;16.70;6.20;;;;;;;;;;5078978;28;20546;-66
2021/12/26 14:15:21;;;;;;;14.73;7.37;;;;;;;;;;5078392;28;20135;-66
2021/12/26 14:17:51;;;;;;;11.67;5.27;;;;;;;;;;5082245;28;20046;-66
2021/12/26 14:20:17;;;;;;;13.67;5.23;;;;;;;;;;5078772;28;20447;-66
2021/12/26 14:22:44;;;;;;;9.48;4.00;;;;;;;;;;5083369;28;20048;-66
2021/12/26 14:25:10;;;;;;;17.25;5.05;;;;;;;;;;5076617;28;20135;-66
2021/12/26 14:27:40;;;;;;;11.00;3.58;;;;;;;;;;5078926;28;20188;-66
2021/12/26 14:30:07;;;;;;;13.00;5.60;;;;;;;;;;5075046;28;20864;-66
2021/12/26 14:32:33;;;;;;;15.00;6.53;;;;;;;;;;5081312;28;20048;-66
2021/12/26 14:35:00;;;;;;;11.60;7.18;;;;;;;;;;5080969;28;20425;-67
2021/12/26 14:37:27;;;;;;;11.03;4.70;;;;;;;;;;5078603;28;20756;-67
2021/12/26 14:39:55;;;;;;;11.27;4.07;;;;;;;;;;5078385;28;20159;-67
2021/12/26 14:42:23;;;;;;;19.03;5.70;;;;;;;;;;5078657;28;20079;-67
2021/12/26 14:44:54;;;;;;;12.57;5.50;;;;;;;;;;5076245;28;20150;-67
2021/12/26 14:47:26;;;;;;;17.87;6.47;;;;;;;;;;5085053;28;20522;-67
2021/12/26 14:49:54;;;;;;;14.70;6.83;;;;;;;;;;5079616;28;20114;-66
2021/12/26 14:52:21;;;;;;;12.50;6.13;;;;;;;;;;5078777;28;20162;-67
2021/12/26 14:54:48;;;;;;;;;;;;;;;;;;5080255;28;20135;-66
2021/12/26 14:57:24;;;;;;;12.67;4.90;;;;;;;;;;5073997;28;21156;-67
2021/12/26 14:59:55;;;;;;;11.23;4.97;;;;;;;;;;5083764;28;20107;-67